EBOS Airport Information

Runway Information
Runway 08 Length 10499 ft width 148 ft Elevation 15 ft Threshold 985 ft Heading 75
Runway 26 Length 10499 ft Width 148 ft Elevation 13 ft Threshold 1362 ft Heading 256
Runway 14 Length 2057 ft width 148 ft Elevation 13 ft Threshold N/A Heading 137
Runway 32 Length 2057 ft Width 148 ft Elevation 13 ft Threshold N/A Heading 317
Airport Frequencies
Type APP Name APP Frequency 120.6 MHZ
Type GND Name GND Frequency 121.975 MHZ
Type TWR Name TWR Frequency 118.175 MHZ
Type ATIS Name ATIS Frequency 126.12 MHZ
Airport Navaids
Type NDB Name Oostende Frequency 400 KHZ
Airport Weather Information & NOTAM
ADDS - METARS form results

(1816 UTC 03 December 2022)
Data provider http://aviationweather.gov/metar/data/
 
METAR text: EBOS 031750Z 07010KT 6000 SCT012 OVC015 01/M01 Q1018 TEMPO BKN012
Conditions at: EBOS (OOSTENDE AIRPORT, BE) observed 1750 UTC 03 December 2022
Temperature: 1.0°C (34°F)
Dewpoint: -1.0°C (30°F) [RH = 86%]
Pressure (altimeter): 30.06 inches Hg (1018.0 mb)
Winds: from the ENE (70 degrees) at 12 MPH (10 knots; 5.1 m/s)
Visibility: 4 miles ( 6 km)
Ceiling: 1500 feet AGL
Clouds: scattered clouds at 1200 feet AGL
overcast cloud deck at 1500 feet AGL
Weather: no significant weather observed at this time

METAR text: EBOS 031720Z 07010KT 6000 OVC012 01/M01 Q1018 TEMPO SCT012 BKN016
Conditions at: EBOS (OOSTENDE AIRPORT, BE) observed 1720 UTC 03 December 2022
Temperature: 1.0°C (34°F)
Dewpoint: -1.0°C (30°F) [RH = 86%]
Pressure (altimeter): 30.06 inches Hg (1018.0 mb)
Winds: from the ENE (70 degrees) at 12 MPH (10 knots; 5.1 m/s)
Visibility: 4 miles ( 6 km)
Ceiling: 1200 feet AGL
Clouds: overcast cloud deck at 1200 feet AGL
Weather: no significant weather observed at this time

Forecast for: EBOS (OOSTENDE AIRPORT, BE)
Text: TAF EBOS 031702Z 0318/0424 07008KT 9999 BKN020
Forecast period: 1800 UTC 03 December 2022 to 0000 UTC 05 December 2022
Forecast type: FROM: standard forecast or significant change
Winds: from the ENE (70 degrees) at 9 MPH (8 knots; 4.1 m/s)
Visibility: 6 or more miles (10+ km)
Ceiling: 2000 feet AGL
Clouds: broken clouds at 2000 feet AGL
Weather: no significant weather forecast for this period
Text: TEMPO 0318/0424
Forecast period: 1800 UTC 03 December 2022 to 0000 UTC 05 December 2022
Forecast type: FROM: standard forecast or significant change
Visibility: missing
Ceiling: unknown
Clouds: missing
Weather: no significant weather forecast for this period